createdAt,value
2022-07-28T00:00:31.222Z,11.60
2022-07-28T00:05:36.574Z,11.27
2022-07-28T00:10:39.959Z,14.57
2022-07-28T00:15:43.292Z,14.47
2022-07-28T00:20:48.120Z,14.80
2022-07-28T00:25:51.370Z,13.73
2022-07-28T00:30:56.376Z,13.53
2022-07-28T00:36:01.148Z,16.70
2022-07-28T00:41:14.160Z,13.68
2022-07-28T00:46:19.680Z,13.80
2022-07-28T00:51:27.864Z,15.40
2022-07-28T00:56:31.828Z,14.77
2022-07-28T01:01:36.022Z,16.58
2022-07-28T01:11:59.444Z,15.98
2022-07-28T01:17:09.132Z,14.55
2022-07-28T01:22:18.699Z,12.85
2022-07-28T01:27:37.102Z,15.10
2022-07-28T01:32:45.408Z,15.15
2022-07-28T01:37:53.433Z,14.15
2022-07-28T01:43:00.437Z,12.30
2022-07-28T01:48:06.912Z,14.30
2022-07-28T01:53:11.942Z,16.17
2022-07-28T01:58:18.249Z,20.55
2022-07-28T02:03:25.456Z,15.27
2022-07-28T02:08:29.773Z,15.07
2022-07-28T02:13:35.206Z,14.00
2022-07-28T02:18:41.368Z,14.93
2022-07-28T02:23:48.828Z,15.05
2022-07-28T02:28:55.497Z,16.98
2022-07-28T02:34:04.377Z,17.92
2022-07-28T02:39:17.097Z,11.00
2022-07-28T02:44:27.588Z,10.88
2022-07-28T02:49:34.930Z,16.08
2022-07-28T02:54:39.083Z,14.20
2022-07-28T02:59:44.091Z,14.27
2022-07-28T03:05:00.916Z,11.45
2022-07-28T03:10:05.366Z,11.00
2022-07-28T03:15:09.670Z,14.15
2022-07-28T03:20:16.020Z,13.90
2022-07-28T03:25:27.795Z,11.32
2022-07-28T03:30:43.549Z,15.70
2022-07-28T03:35:52.952Z,17.35
2022-07-28T03:40:58.855Z,15.05
2022-07-28T03:46:02.404Z,12.38
2022-07-28T03:51:07.162Z,17.40
2022-07-28T03:56:10.566Z,13.00
2022-07-28T04:01:14.122Z,14.50
2022-07-28T04:06:19.294Z,15.30
2022-07-28T04:11:23.354Z,18.00
2022-07-28T04:16:26.846Z,17.52
2022-07-28T04:21:31.682Z,18.02
2022-07-28T04:26:35.012Z,19.45
2022-07-28T04:31:38.566Z,20.92
2022-07-28T04:41:47.067Z,18.70
2022-07-28T04:46:50.426Z,19.60
2022-07-28T04:51:55.159Z,18.80
2022-07-28T04:57:00.808Z,20.50
2022-07-28T05:02:09.082Z,18.92
2022-07-28T05:07:14.073Z,19.70
2022-07-28T05:12:17.447Z,17.30
2022-07-28T05:17:20.768Z,18.48
2022-07-28T05:22:25.513Z,18.15
2022-07-28T05:27:28.785Z,18.17
2022-07-28T05:32:32.084Z,16.75
2022-07-28T05:37:37.770Z,16.38
2022-07-28T05:42:41.118Z,16.33
2022-07-28T05:47:46.421Z,15.85
2022-07-28T05:52:51.905Z,15.85
2022-07-28T05:57:55.347Z,15.60
2022-07-28T06:03:02.168Z,15.35
2022-07-28T06:08:10.621Z,15.00
2022-07-28T06:13:16.413Z,17.08
2022-07-28T06:18:19.974Z,14.68
2022-07-28T06:23:25.157Z,14.57
2022-07-28T06:28:28.465Z,13.35
2022-07-28T06:33:31.917Z,13.80
2022-07-28T06:38:36.774Z,13.15
2022-07-28T06:43:40.253Z,13.52
2022-07-28T06:48:46.073Z,14.13
2022-07-28T06:53:50.897Z,13.10
2022-07-28T06:58:54.215Z,14.20
2022-07-28T07:03:57.894Z,14.13
2022-07-28T07:09:03.001Z,13.20
2022-07-28T07:14:06.335Z,14.55
2022-07-28T07:19:15.452Z,14.57
2022-07-28T07:24:20.530Z,15.50
2022-07-28T07:29:25.823Z,13.30
2022-07-28T07:34:33.860Z,13.40
2022-07-28T07:39:38.629Z,13.05
2022-07-28T07:44:42.134Z,13.70
2022-07-28T07:49:53.801Z,14.15
2022-07-28T07:54:58.665Z,14.30
2022-07-28T08:00:02.122Z,13.52
2022-07-28T08:05:07.010Z,13.25
2022-07-28T08:10:13.120Z,15.13
2022-07-28T08:15:16.626Z,15.02
2022-07-28T08:20:20.126Z,20.40
2022-07-28T08:25:25.675Z,16.17
2022-07-28T08:30:32.736Z,14.82
2022-07-28T08:35:36.663Z,17.17
2022-07-28T08:40:43.580Z,15.63
2022-07-28T08:45:52.543Z,17.10
2022-07-28T08:51:01.803Z,15.63
2022-07-28T08:56:07.931Z,12.23
2022-07-28T09:01:11.664Z,12.25
2022-07-28T09:06:15.434Z,12.93
2022-07-28T09:11:20.214Z,12.07
2022-07-28T09:16:23.845Z,14.25
2022-07-28T09:21:27.308Z,12.60
2022-07-28T09:26:32.124Z,11.05
2022-07-28T09:31:35.531Z,10.55
2022-07-28T09:36:41.569Z,10.88
2022-07-28T09:41:50.695Z,9.77
2022-07-28T09:46:54.541Z,10.55
2022-07-28T09:52:03.204Z,10.15
2022-07-28T09:57:11.863Z,11.43
2022-07-28T10:02:25.490Z,9.82
2022-07-28T10:07:31.319Z,12.13
2022-07-28T10:12:38.340Z,9.93
2022-07-28T10:17:43.315Z,9.18
2022-07-28T10:22:47.297Z,11.52
2022-07-28T10:27:52.675Z,9.63
2022-07-28T10:32:58.387Z,8.10
2022-07-28T10:38:05.659Z,9.43
2022-07-28T10:43:10.563Z,10.10
2022-07-28T10:48:14.306Z,8.68
2022-07-28T10:53:29.203Z,9.30
2022-07-28T10:58:45.322Z,8.95
2022-07-28T11:03:49.604Z,9.40
2022-07-28T11:08:53.851Z,9.05
2022-07-28T11:14:38.993Z,8.95
2022-07-28T11:25:22.413Z,9.35
2022-07-28T11:30:53.719Z,8.70
2022-07-28T11:36:02.164Z,9.10
2022-07-28T11:41:30.119Z,11.38
2022-07-28T11:46:39.934Z,9.75
2022-07-28T11:52:03.497Z,9.20
2022-07-28T11:57:09.954Z,8.40
2022-07-28T12:02:19.029Z,10.60
2022-07-28T12:07:29.308Z,10.48
2022-07-28T12:12:34.667Z,11.60
2022-07-28T12:17:40.647Z,11.73
2022-07-28T12:22:56.664Z,10.10
2022-07-28T12:28:14.237Z,12.88
2022-07-28T12:33:26.182Z,9.15
2022-07-28T12:38:34.580Z,8.00
2022-07-28T12:43:38.232Z,8.23
2022-07-28T12:48:43.145Z,10.65
2022-07-28T12:53:52.476Z,9.48
2022-07-28T12:59:06.413Z,9.30
2022-07-28T13:04:11.404Z,10.48
2022-07-28T13:09:29.940Z,8.30
2022-07-28T13:14:43.929Z,14.35
2022-07-28T13:19:49.622Z,12.07
2022-07-28T13:24:53.254Z,11.13
2022-07-28T13:29:57.354Z,9.73
2022-07-28T13:35:03.554Z,8.93
2022-07-28T13:40:08.172Z,10.63
2022-07-28T13:45:12.292Z,12.15
2022-07-28T13:50:22.056Z,13.32
2022-07-28T13:55:27.577Z,12.45
2022-07-28T14:00:31.320Z,13.02
2022-07-28T14:05:36.788Z,12.18
2022-07-28T14:10:41.981Z,12.02
2022-07-28T14:15:51.945Z,12.07
2022-07-28T14:21:09.323Z,10.85
2022-07-28T14:26:34.870Z,11.65
2022-07-28T14:31:37.633Z,15.68
2022-07-28T14:36:42.489Z,13.25
2022-07-28T14:41:45.868Z,14.30
2022-07-28T14:46:52.501Z,14.25
2022-07-28T14:51:58.002Z,25.65
2022-07-28T14:57:01.520Z,14.18
2022-07-28T15:02:05.250Z,24.35
2022-07-28T15:07:10.288Z,17.67
2022-07-28T15:12:15.441Z,18.77
2022-07-28T15:17:19.759Z,18.70
2022-07-28T15:22:26.446Z,17.52
2022-07-28T15:27:33.648Z,19.38
2022-07-28T15:32:47.492Z,20.80
2022-07-28T15:38:01.183Z,19.83
2022-07-28T15:43:04.663Z,17.83
2022-07-28T15:48:09.040Z,16.00
2022-07-28T15:53:13.786Z,14.85
2022-07-28T15:58:17.174Z,15.50
2022-07-28T16:03:22.763Z,11.82
2022-07-28T16:08:28.363Z,12.65
2022-07-28T16:13:36.840Z,9.80
2022-07-28T16:18:44.054Z,6.47
2022-07-28T16:23:48.808Z,8.63
2022-07-28T16:28:52.182Z,6.72
2022-07-28T16:33:56.905Z,8.50
2022-07-28T16:39:04.246Z,6.35
2022-07-28T16:44:07.702Z,5.72
2022-07-28T16:49:11.129Z,4.82
2022-07-28T16:54:16.227Z,6.95
2022-07-28T16:59:20.826Z,4.82
2022-07-28T17:04:24.406Z,3.88
2022-07-28T17:09:29.142Z,6.03
2022-07-28T17:14:32.606Z,3.95
2022-07-28T17:19:39.827Z,5.32
2022-07-28T17:24:48.480Z,3.92
2022-07-28T17:29:52.866Z,3.90
2022-07-28T17:34:56.213Z,3.50
2022-07-28T17:40:01.198Z,4.03
2022-07-28T17:45:09.418Z,7.35
2022-07-28T17:50:13.639Z,3.30
2022-07-28T18:01:11.065Z,3.25
2022-07-28T18:06:15.118Z,3.22
2022-07-28T18:11:20.187Z,4.87
2022-07-28T18:16:23.631Z,3.65
2022-07-28T18:21:27.153Z,3.83
2022-07-28T18:26:32.234Z,3.00
2022-07-28T18:31:35.662Z,3.47
2022-07-28T18:36:39.112Z,5.30
2022-07-28T18:41:46.029Z,3.90
2022-07-28T18:46:52.573Z,6.57
2022-07-28T18:51:56.183Z,5.93
2022-07-28T18:57:00.971Z,5.07
2022-07-28T19:02:04.472Z,9.52
2022-07-28T19:07:07.875Z,6.70
2022-07-28T19:12:12.893Z,3.27
2022-07-28T19:17:16.227Z,4.03
2022-07-28T19:22:19.868Z,5.10
2022-07-28T19:27:24.654Z,5.82
2022-07-28T19:32:34.444Z,5.40
2022-07-28T19:37:39.057Z,2.72
2022-07-28T19:42:43.813Z,2.97
2022-07-28T19:47:47.216Z,5.95
2022-07-28T19:52:53.272Z,4.60
2022-07-28T19:57:59.385Z,6.20
2022-07-28T20:03:03.448Z,5.68
2022-07-28T20:08:06.897Z,9.43
2022-07-28T20:13:11.977Z,3.90
2022-07-28T20:18:17.242Z,3.70
2022-07-28T20:23:20.622Z,6.35
2022-07-28T20:28:25.424Z,12.83
2022-07-28T20:33:30.092Z,2.08
2022-07-28T20:38:33.408Z,2.65
2022-07-28T20:43:38.647Z,2.22
2022-07-28T20:48:42.087Z,2.72
2022-07-28T20:53:45.389Z,4.47
2022-07-28T20:58:50.178Z,5.03
2022-07-28T21:03:53.457Z,4.05
2022-07-28T21:08:59.974Z,3.72
2022-07-28T21:14:05.032Z,3.78
2022-07-28T21:19:08.805Z,5.32
2022-07-28T21:24:12.423Z,5.25
2022-07-28T21:34:20.303Z,2.40
2022-07-28T21:39:23.644Z,7.53
2022-07-28T21:44:28.505Z,2.67
2022-07-28T21:49:32.499Z,3.33
2022-07-28T21:54:36.711Z,4.40
2022-07-28T21:59:41.445Z,5.38
2022-07-28T22:04:44.779Z,4.18
2022-07-28T22:09:48.127Z,3.13
2022-07-28T22:14:52.972Z,3.37
2022-07-28T22:19:56.350Z,3.30
2022-07-28T22:24:59.816Z,3.05
2022-07-28T22:30:05.391Z,2.83
2022-07-28T22:35:10.803Z,3.60
2022-07-28T22:40:16.205Z,2.22
2022-07-28T22:45:50.619Z,4.30
2022-07-28T22:50:44.638Z,4.68
2022-07-28T22:55:49.412Z,3.70
2022-07-28T23:00:55.029Z,3.53
2022-07-28T23:06:00.193Z,3.90
2022-07-28T23:11:03.582Z,4.28
2022-07-28T23:16:10.493Z,4.37
2022-07-28T23:21:14.051Z,5.68
2022-07-28T23:26:17.492Z,5.03
2022-07-28T23:31:23.036Z,9.70
2022-07-28T23:36:27.884Z,5.03
2022-07-28T23:41:31.582Z,4.30
2022-07-28T23:46:37.117Z,6.00
2022-07-28T23:51:47.581Z,3.65
2022-07-28T23:56:55.255Z,6.13
